Time;durP1;ratioP1;P1;durP2;ratioP2;P2;SDS_P1;SDS_P2;PMS_P1;PMS_P2;Temp;Humidity;BMP_temperature;BMP_pressure;BME280_temperature;BME280_humidity;BME280_pressure;Samples;Min_cycle;Max_cycle;Signal;HPM_P1;HPM_P2
2021/04/08 00:02:16;;;;;;;12.50;1.70;;;2.10;99.90;;;;;;5028065;28;20503;-78
2021/04/08 00:04:43;;;;;;;14.07;2.03;;;2.20;99.90;;;;;;5013724;28;20480;-79
2021/04/08 00:07:11;;;;;;;12.03;2.07;;;2.10;99.90;;;;;;5014412;28;20490;-79
2021/04/08 00:09:38;;;;;;;9.50;1.80;;;2.10;99.90;;;;;;5001430;28;20488;-79
2021/04/08 00:12:07;;;;;;;11.40;2.23;;;2.10;99.90;;;;;;4994130;28;20479;-79
2021/04/08 00:14:35;;;;;;;10.70;1.93;;;2.10;99.90;;;;;;4994661;28;20475;-79
2021/04/08 00:17:02;;;;;;;10.27;2.00;;;2.00;99.90;;;;;;4997793;28;20481;-79
2021/04/08 00:19:31;;;;;;;9.13;1.83;;;2.00;99.90;;;;;;5013873;28;20532;-79
2021/04/08 00:21:58;;;;;;;11.53;1.97;;;2.00;99.90;;;;;;5014130;28;20480;-79
2021/04/08 00:24:25;;;;;;;11.23;2.07;;;2.00;99.90;;;;;;5013595;28;20477;-79
2021/04/08 00:26:52;;;;;;;13.63;2.37;;;2.00;99.90;;;;;;5024368;28;20499;-79
2021/04/08 00:29:20;;;;;;;11.83;1.90;;;2.00;99.90;;;;;;5013680;28;20486;-79
2021/04/08 00:31:47;;;;;;;12.10;2.00;;;2.00;99.90;;;;;;5013221;28;20476;-79
2021/04/08 00:34:15;;;;;;;14.97;2.10;;;2.00;99.90;;;;;;5014055;28;20480;-79
2021/04/08 00:36:46;;;;;;;10.87;1.90;;;2.10;99.90;;;;;;5014006;28;20538;-79
2021/04/08 00:39:13;;;;;;;9.40;2.17;;;2.10;99.90;;;;;;5013784;28;20486;-79
2021/04/08 00:41:41;;;;;;;11.80;2.40;;;2.10;99.90;;;;;;5028249;28;20482;-79
2021/04/08 00:44:08;;;;;;;12.53;1.90;;;2.10;99.90;;;;;;5008582;28;20547;-79
2021/04/08 00:46:36;;;;;;;16.80;2.40;;;2.10;99.90;;;;;;5003918;28;20467;-79
2021/04/08 00:49:04;;;;;;;14.77;2.00;;;2.10;99.90;;;;;;5013590;28;20497;-79
2021/04/08 00:51:31;;;;;;;11.13;2.10;;;2.20;99.90;;;;;;5012671;28;20482;-79
2021/04/08 00:54:00;;;;;;;11.77;2.00;;;2.20;99.90;;;;;;4996907;28;20991;-79
2021/04/08 00:56:28;;;;;;;11.67;2.03;;;2.30;99.90;;;;;;4993506;28;20478;-79
2021/04/08 00:58:55;;;;;;;13.87;2.40;;;2.20;99.90;;;;;;4991346;28;20551;-79
2021/04/08 01:01:23;;;;;;;12.53;2.00;;;2.30;99.90;;;;;;4992502;28;20491;-79
2021/04/08 01:03:51;;;;;;;12.37;2.60;;;2.20;99.90;;;;;;5004999;28;20480;-79
2021/04/08 01:06:18;;;;;;;13.20;2.20;;;2.30;99.90;;;;;;5030553;28;20467;-78
2021/04/08 01:08:45;;;;;;;10.30;2.20;;;2.30;99.90;;;;;;5032846;28;20473;-79
2021/04/08 01:11:14;;;;;;;8.50;1.87;;;2.20;99.90;;;;;;5033036;28;20507;-79
2021/04/08 01:13:43;;;;;;;11.77;2.10;;;2.30;99.90;;;;;;5018877;28;20478;-79
2021/04/08 01:16:17;;;;;;;9.63;2.03;;;2.30;99.90;;;;;;5013574;28;20974;-79
2021/04/08 01:18:59;;;;;;;11.17;2.03;;;2.40;99.90;;;;;;5012990;28;20489;-79
2021/04/08 01:21:35;;;;;;;12.67;2.37;;;2.50;99.90;;;;;;5011600;28;20480;-79
2021/04/08 01:24:38;;;;;;;13.30;2.20;;;2.50;99.90;;;;;;5012678;28;20482;-79
2021/04/08 01:27:37;;;;;;;10.47;1.80;;;2.40;99.90;;;;;;5013105;28;20486;-78
2021/04/08 01:30:40;;;;;;;9.23;1.90;;;2.30;99.90;;;;;;5012380;28;20533;-79
2021/04/08 01:33:13;;;;;;;12.03;2.30;;;2.20;99.90;;;;;;5012502;28;20894;-79
2021/04/08 01:35:43;;;;;;;15.40;2.80;;;2.20;99.90;;;;;;5012790;28;20987;-79
2021/04/08 01:38:15;;;;;;;11.27;2.10;;;2.10;99.90;;;;;;5013140;28;20513;-79
2021/04/08 01:40:46;;;;;;;10.47;1.63;;;2.00;99.90;;;;;;5009724;28;21032;-79
2021/04/08 01:43:18;;;;;;;8.80;1.77;;;2.00;99.90;;;;;;5010583;28;20496;-78
2021/04/08 01:45:48;;;;;;;10.13;1.73;;;2.10;99.90;;;;;;5009016;28;20882;-79
2021/04/08 01:48:17;;;;;;;15.03;1.90;;;2.00;99.90;;;;;;5012408;28;20467;-79
2021/04/08 01:50:45;;;;;;;7.93;1.70;;;2.00;99.90;;;;;;5020734;28;20481;-79
2021/04/08 01:53:16;;;;;;;7.83;1.90;;;2.00;99.90;;;;;;5010479;28;20473;-79
2021/04/08 01:55:44;;;;;;;11.77;2.43;;;2.00;99.90;;;;;;5011473;28;20514;-78
2021/04/08 01:58:19;;;;;;;10.33;2.03;;;2.10;99.90;;;;;;5012167;28;20508;-79
2021/04/08 02:00:47;;;;;;;11.63;2.00;;;2.10;99.90;;;;;;5011416;28;20543;-78
2021/04/08 02:03:16;;;;;;;13.13;1.93;;;2.10;99.90;;;;;;5018577;28;20485;-79
2021/04/08 02:05:44;;;;;;;8.93;1.83;;;2.20;99.90;;;;;;5030856;28;20472;-78
2021/04/08 02:08:13;;;;;;;10.90;2.27;;;2.20;99.90;;;;;;5031631;28;21054;-79
2021/04/08 02:10:41;;;;;;;13.70;2.67;;;2.20;99.90;;;;;;5031649;28;20469;-79
2021/04/08 02:13:13;;;;;;;15.30;1.77;;;2.20;99.90;;;;;;5014636;28;20473;-78
2021/04/08 02:15:44;;;;;;;10.60;1.70;;;2.20;99.90;;;;;;5026906;28;20513;-79
2021/04/08 02:18:17;;;;;;;14.50;2.60;;;2.20;99.90;;;;;;5011719;28;20845;-79
2021/04/08 02:20:49;;;;;;;12.20;1.90;;;2.20;99.90;;;;;;5011315;28;20478;-79
2021/04/08 02:23:21;;;;;;;12.80;2.23;;;2.20;99.90;;;;;;4994202;28;20497;-79
2021/04/08 02:25:51;;;;;;;15.70;2.80;;;2.20;99.90;;;;;;4993093;28;20537;-79
2021/04/08 02:28:20;;;;;;;10.77;1.90;;;2.20;99.90;;;;;;5007173;28;20507;-79
2021/04/08 02:30:50;;;;;;;18.93;2.17;;;2.20;99.90;;;;;;5002053;28;20472;-79
2021/04/08 02:33:24;;;;;;;8.77;1.70;;;2.20;99.90;;;;;;5009830;28;20488;-78
2021/04/08 02:35:52;;;;;;;8.10;1.70;;;2.30;99.90;;;;;;5010584;28;20508;-79
2021/04/08 02:38:22;;;;;;;11.17;1.80;;;2.30;99.90;;;;;;5019731;28;21052;-78
2021/04/08 02:40:50;;;;;;;10.00;1.90;;;2.40;99.90;;;;;;5014068;28;21032;-79
2021/04/08 02:43:19;;;;;;;10.47;1.97;;;2.40;99.90;;;;;;5001401;28;20480;-79
2021/04/08 02:45:46;;;;;;;9.23;1.90;;;2.30;99.90;;;;;;5026807;28;20828;-79
2021/04/08 02:48:16;;;;;;;17.60;2.40;;;2.30;99.90;;;;;;5019373;28;20486;-79
2021/04/08 02:50:50;;;;;;;15.43;3.20;;;2.30;99.90;;;;;;5045791;28;20482;-79
2021/04/08 02:53:26;;;;;;;10.30;1.90;;;2.30;99.90;;;;;;5013331;28;20501;-79
2021/04/08 02:55:59;;;;;;;10.57;2.10;;;2.30;99.90;;;;;;5011296;28;20474;-79
2021/04/08 02:58:30;;;;;;;9.80;1.93;;;2.30;99.90;;;;;;5011031;28;20488;-79
2021/04/08 03:01:02;;;;;;;14.20;2.07;;;2.30;99.90;;;;;;5021718;28;21057;-79
2021/04/08 03:03:46;;;;;;;10.17;1.53;;;2.30;99.90;;;;;;4995617;28;20481;-79
2021/04/08 03:06:16;;;;;;;10.97;1.93;;;2.30;99.90;;;;;;4995833;28;20495;-79
2021/04/08 03:08:48;;;;;;;5.70;1.53;;;2.30;99.90;;;;;;4995275;28;20956;-79
2021/04/08 03:11:23;;;;;;;11.07;2.20;;;2.30;99.90;;;;;;5003371;28;20478;-79
2021/04/08 03:13:53;;;;;;;10.83;1.50;;;2.30;99.90;;;;;;5013477;28;20480;-79
2021/04/08 03:16:26;;;;;;;6.67;1.50;;;2.20;99.90;;;;;;5014733;28;20536;-79
2021/04/08 03:18:56;;;;;;;8.67;1.97;;;2.30;99.90;;;;;;5014341;28;20988;-79
2021/04/08 03:21:27;;;;;;;6.60;1.63;;;2.20;99.90;;;;;;4999283;28;20568;-79
2021/04/08 03:23:57;;;;;;;6.87;1.60;;;2.20;99.90;;;;;;4994246;28;20480;-79
2021/04/08 03:26:26;;;;;;;12.50;1.97;;;2.20;99.90;;;;;;5009151;28;20486;-79
2021/04/08 03:28:54;;;;;;;10.40;2.10;;;2.20;99.90;;;;;;5014825;28;20893;-78
2021/04/08 03:31:23;;;;;;;10.15;2.05;;;2.20;99.90;;;;;;5012477;28;20470;-79
2021/04/08 03:33:52;;;;;;;7.60;1.70;;;2.10;99.90;;;;;;5014371;28;20239;-79
2021/04/08 03:36:20;;;;;;;10.73;2.10;;;2.10;99.90;;;;;;5014461;28;20996;-79
2021/04/08 03:38:49;;;;;;;6.83;1.70;;;2.00;99.90;;;;;;5009632;28;21082;-79
2021/04/08 03:41:19;;;;;;;9.33;1.67;;;2.00;99.90;;;;;;5027188;28;20470;-79
2021/04/08 03:43:46;;;;;;;8.63;1.50;;;2.00;99.90;;;;;;5013671;28;20474;-79
2021/04/08 03:46:15;;;;;;;7.20;2.13;;;2.00;99.90;;;;;;5019015;28;21061;-79
2021/04/08 03:48:45;;;;;;;8.70;1.83;;;2.00;99.90;;;;;;5013875;28;20494;-79
2021/04/08 03:51:13;;;;;;;10.23;1.67;;;2.00;99.90;;;;;;5001393;28;20488;-79
2021/04/08 03:53:41;;;;;;;7.00;1.60;;;2.00;99.90;;;;;;4993804;28;20512;-79
2021/04/08 03:56:11;;;;;;;6.87;1.60;;;2.00;99.90;;;;;;4994111;28;20533;-79
2021/04/08 03:58:40;;;;;;;10.00;1.80;;;1.90;99.90;;;;;;5016313;28;20484;-79
2021/04/08 04:01:07;;;;;;;12.47;1.97;;;1.90;99.90;;;;;;5011027;28;20499;-79
2021/04/08 04:03:37;;;;;;;10.83;1.87;;;2.00;99.90;;;;;;5013251;28;20475;-79
2021/04/08 04:06:09;;;;;;;8.10;1.60;;;2.00;99.90;;;;;;5013581;28;20894;-79
2021/04/08 04:08:37;;;;;;;4.70;1.30;;;2.00;99.90;;;;;;5009881;28;20488;-79
2021/04/08 04:11:04;;;;;;;6.60;1.50;;;2.00;99.90;;;;;;5010906;28;20540;-79
2021/04/08 04:13:34;;;;;;;8.77;1.77;;;2.00;99.90;;;;;;5028376;28;20904;-79
2021/04/08 04:16:05;;;;;;;10.33;1.70;;;2.00;99.90;;;;;;5011645;28;20570;-79
2021/04/08 04:18:33;;;;;;;6.83;1.17;;;2.00;99.90;;;;;;5010272;28;20491;-79
2021/04/08 04:21:01;;;;;;;7.77;1.37;;;2.00;99.90;;;;;;4992977;28;20510;-79
2021/04/08 04:23:28;;;;;;;6.33;1.23;;;2.00;99.90;;;;;;4992705;28;20503;-79
2021/04/08 04:25:55;;;;;;;9.40;1.57;;;2.10;99.90;;;;;;5004923;28;21012;-79
2021/04/08 04:28:23;;;;;;;8.73;1.60;;;2.00;99.90;;;;;;5011350;28;20478;-79
2021/04/08 04:30:51;;;;;;;6.17;1.43;;;2.10;99.90;;;;;;5011176;28;20484;-79
2021/04/08 04:33:18;;;;;;;7.23;1.90;;;2.10;99.90;;;;;;5006792;28;20485;-79
2021/04/08 04:35:46;;;;;;;8.57;1.30;;;2.10;99.90;;;;;;5010326;28;20493;-79
2021/04/08 04:38:13;;;;;;;7.43;1.47;;;2.10;99.90;;;;;;5008732;28;20473;-79
2021/04/08 04:40:40;;;;;;;4.47;1.80;;;2.10;99.90;;;;;;5012303;28;21001;-79
2021/04/08 04:43:08;;;;;;;10.10;1.70;;;2.10;99.90;;;;;;5015991;28;20472;-79
2021/04/08 04:45:35;;;;;;;9.93;1.50;;;2.10;99.90;;;;;;5010951;28;20501;-78
2021/04/08 04:48:05;;;;;;;5.63;1.30;;;2.00;99.90;;;;;;5002632;28;20489;-79
2021/04/08 04:50:33;;;;;;;11.83;2.53;;;2.10;99.90;;;;;;5001549;28;20497;-79
2021/04/08 04:53:00;;;;;;;8.50;1.50;;;2.10;99.90;;;;;;5018837;28;20484;-79
2021/04/08 04:55:28;;;;;;;9.80;1.80;;;2.10;99.90;;;;;;5014159;28;20573;-79
2021/04/08 04:57:55;;;;;;;9.30;1.53;;;2.10;99.90;;;;;;5005920;28;20549;-79
2021/04/08 05:00:24;;;;;;;11.47;2.10;;;2.00;99.90;;;;;;5001098;28;20875;-79
2021/04/08 05:02:51;;;;;;;7.70;1.93;;;2.00;99.90;;;;;;5002167;28;20486;-79
2021/04/08 05:05:19;;;;;;;8.63;1.70;;;2.10;99.90;;;;;;5001676;28;20904;-79
2021/04/08 05:07:47;;;;;;;12.00;2.37;;;2.10;99.90;;;;;;5005822;28;20495;-79
2021/04/08 05:10:14;;;;;;;6.53;1.77;;;2.10;99.90;;;;;;5002330;28;20485;-79
2021/04/08 05:12:41;;;;;;;8.13;1.80;;;2.10;99.90;;;;;;5014806;28;20477;-78
2021/04/08 05:15:09;;;;;;;9.43;1.60;;;2.20;99.90;;;;;;5008086;28;21285;-79
2021/04/08 05:17:37;;;;;;;10.10;1.97;;;2.20;99.90;;;;;;5007003;28;20480;-77
2021/04/08 05:20:06;;;;;;;10.57;2.00;;;2.20;99.90;;;;;;5002269;28;20515;-80
2021/04/08 05:22:34;;;;;;;11.03;1.70;;;2.20;99.90;;;;;;4998566;28;20984;-79
2021/04/08 05:25:02;;;;;;;8.87;1.93;;;2.20;99.90;;;;;;5001964;28;20485;-79
2021/04/08 05:27:30;;;;;;;9.93;1.70;;;2.20;99.90;;;;;;4999161;28;20572;-79
2021/04/08 05:29:57;;;;;;;9.60;2.00;;;2.20;99.90;;;;;;5005285;28;21011;-79
2021/04/08 05:32:24;;;;;;;11.60;2.07;;;2.20;99.90;;;;;;5000285;28;20534;-79
2021/04/08 05:34:52;;;;;;;11.50;1.90;;;2.20;99.90;;;;;;5001629;28;20477;-79
2021/04/08 05:37:20;;;;;;;9.47;1.87;;;2.30;99.90;;;;;;5002967;28;20477;-78
2021/04/08 05:39:48;;;;;;;10.50;1.90;;;2.30;99.90;;;;;;5010364;28;21241;-80
2021/04/08 05:42:18;;;;;;;11.50;2.50;;;2.40;99.90;;;;;;5011710;28;20478;-79
2021/04/08 05:44:46;;;;;;;10.37;2.57;;;2.50;99.90;;;;;;4994540;28;20477;-79
2021/04/08 05:47:13;;;;;;;9.90;2.27;;;2.50;99.90;;;;;;5000110;28;20489;-79
2021/04/08 05:49:41;;;;;;;7.33;1.80;;;2.60;99.90;;;;;;5001802;28;20471;-79
2021/04/08 05:52:09;;;;;;;8.53;1.77;;;2.70;99.90;;;;;;4998730;28;20484;-79
2021/04/08 05:54:36;;;;;;;9.50;1.97;;;2.70;99.90;;;;;;5015357;28;20534;-79
2021/04/08 05:57:06;;;;;;;9.57;2.20;;;2.80;99.90;;;;;;5023593;28;21024;-80
2021/04/08 05:59:34;;;;;;;9.37;2.00;;;2.70;99.90;;;;;;5008363;28;20484;-77
2021/04/08 06:02:03;;;;;;;8.97;2.17;;;2.80;99.90;;;;;;5015256;28;20825;-78
2021/04/08 06:04:31;;;;;;;9.53;2.20;;;2.80;99.90;;;;;;5009938;28;20480;-78
2021/04/08 06:06:59;;;;;;;11.17;2.37;;;2.80;99.90;;;;;;5010013;28;20557;-79
2021/04/08 06:09:26;;;;;;;11.47;2.03;;;2.70;99.90;;;;;;5009406;28;20489;-78
2021/04/08 06:11:54;;;;;;;7.77;2.13;;;2.80;99.90;;;;;;5010403;28;20482;-79
2021/04/08 06:14:23;;;;;;;8.77;1.93;;;2.80;99.90;;;;;;5009879;28;20496;-78
2021/04/08 06:16:50;;;;;;;5.97;1.93;;;2.80;99.90;;;;;;5018325;28;20513;-79
2021/04/08 06:19:17;;;;;;;16.17;2.30;;;2.80;99.90;;;;;;4999639;28;20500;-79
2021/04/08 06:21:46;;;;;;;10.40;2.20;;;2.80;99.90;;;;;;4991547;28;20491;-79
2021/04/08 06:24:13;;;;;;;11.87;2.07;;;2.80;99.90;;;;;;4989094;28;20471;-78
2021/04/08 06:26:40;;;;;;;8.03;1.90;;;2.90;99.90;;;;;;5007636;28;20466;-79
2021/04/08 06:29:09;;;;;;;6.67;2.03;;;3.00;99.90;;;;;;5024848;28;20908;-78
2021/04/08 06:31:48;;;;;;;9.10;2.07;;;3.10;99.90;;;;;;4997029;28;20491;-79
2021/04/08 06:34:17;;;;;;;14.27;2.43;;;3.10;99.90;;;;;;5002633;28;20487;-79
2021/04/08 06:36:45;;;;;;;8.20;2.57;;;3.10;99.90;;;;;;5001563;28;20479;-79
2021/04/08 06:39:12;;;;;;;9.57;2.20;;;3.00;99.90;;;;;;4997525;28;20490;-79
2021/04/08 06:41:40;;;;;;;11.27;3.00;;;3.00;99.90;;;;;;5005838;28;20822;-79
2021/04/08 06:44:13;;;;;;;8.00;2.33;;;3.00;99.90;;;;;;5009899;28;20582;-79
2021/04/08 06:46:43;;;;;;;8.63;2.23;;;3.10;99.90;;;;;;5014285;28;20528;-79
2021/04/08 06:49:24;;;;;;;9.77;2.63;;;3.30;99.90;;;;;;5012104;28;20484;-79
2021/04/08 06:51:58;;;;;;;7.97;1.90;;;3.70;99.90;;;;;;5012735;28;20522;-78
2021/04/08 06:54:28;;;;;;;10.20;2.17;;;3.70;99.90;;;;;;5007027;28;20815;-78
2021/04/08 06:56:56;;;;;;;9.57;2.30;;;3.60;99.90;;;;;;5016730;28;20479;-79
2021/04/08 06:59:23;;;;;;;7.20;2.00;;;3.70;99.90;;;;;;5001538;28;20838;-79
2021/04/08 07:01:51;;;;;;;7.60;2.27;;;4.10;99.90;;;;;;5002989;28;20478;-78
2021/04/08 07:04:21;;;;;;;11.13;2.00;;;4.60;99.90;;;;;;4994800;28;20597;-80
2021/04/08 07:06:50;;;;;;;8.33;2.03;;;5.10;99.90;;;;;;5003448;28;20494;-80
2021/04/08 07:09:18;;;;;;;5.93;1.53;;;5.40;99.90;;;;;;5002311;28;20570;-79
2021/04/08 07:11:46;;;;;;;8.83;1.77;;;5.40;99.90;;;;;;4992606;28;20574;-79
2021/04/08 07:14:13;;;;;;;10.70;2.33;;;5.40;99.90;;;;;;5008094;28;20851;-78
2021/04/08 07:16:40;;;;;;;6.47;1.97;;;5.50;99.90;;;;;;4991061;28;20729;-79
2021/04/08 07:19:08;;;;;;;7.83;1.90;;;5.40;99.90;;;;;;5003987;28;20641;-79
2021/04/08 07:21:38;;;;;;;8.93;2.10;;;5.30;99.90;;;;;;5002585;28;20536;-79
2021/04/08 07:24:14;;;;;;;10.30;1.73;;;5.30;99.90;;;;;;4997237;28;20546;-79
2021/04/08 07:27:00;;;;;;;6.23;1.70;;;5.20;99.90;;;;;;5007017;28;20482;-80
2021/04/08 07:29:47;;;;;;;9.83;1.80;;;5.30;99.90;;;;;;4955182;28;20963;-79
2021/04/08 07:32:22;;;;;;;7.97;1.80;;;5.60;99.90;;;;;;4969909;28;20531;-78
2021/04/08 07:34:51;;;;;;;7.57;1.80;;;5.70;99.90;;;;;;4970683;28;20972;-78
2021/04/08 07:37:32;;;;;;;9.40;1.87;;;5.90;99.90;;;;;;4987970;28;20488;-79
2021/04/08 07:40:17;;;;;;;8.63;1.73;;;6.20;99.90;;;;;;4988688;28;20480;-79
2021/04/08 07:42:46;;;;;;;7.03;1.80;;;6.40;99.90;;;;;;4958928;28;20538;-78
2021/04/08 07:45:25;;;;;;;8.10;1.60;;;6.20;99.90;;;;;;4964884;28;21079;-80
2021/04/08 07:48:00;;;;;;;7.27;1.67;;;6.10;99.90;;;;;;4961911;28;20544;-80
2021/04/08 07:50:30;;;;;;;4.67;1.83;;;5.90;99.90;;;;;;4964953;28;20773;-78
2021/04/08 07:52:58;;;;;;;5.13;1.87;;;5.70;99.90;;;;;;4967582;28;20516;-78
2021/04/08 07:55:36;;;;;;;9.43;2.30;;;5.60;99.90;;;;;;4968898;28;20231;-78
2021/04/08 07:58:06;;;;;;;6.37;1.73;;;5.30;99.90;;;;;;4967590;28;20495;-79
2021/04/08 08:00:36;;;;;;;11.77;2.57;;;5.20;99.90;;;;;;4967599;28;20296;-78
2021/04/08 08:03:07;;;;;;;9.13;1.87;;;5.20;99.90;;;;;;4968809;28;20665;-78
2021/04/08 08:05:37;;;;;;;8.30;1.97;;;5.10;99.90;;;;;;4980824;28;20307;-79
2021/04/08 08:08:14;;;;;;;7.63;1.87;;;5.10;99.90;;;;;;4969979;28;20245;-79
2021/04/08 08:10:43;;;;;;;7.57;2.53;;;5.20;99.90;;;;;;4966356;28;20493;-78
2021/04/08 08:13:29;;;;;;;9.03;1.70;;;5.40;99.90;;;;;;4966039;28;20257;-79
2021/04/08 08:15:58;;;;;;;8.77;1.90;;;5.60;99.90;;;;;;4958044;28;21420;-78
2021/04/08 08:18:30;;;;;;;6.00;1.73;;;5.80;99.90;;;;;;4960751;28;20264;-78
2021/04/08 08:21:07;;;;;;;10.23;1.93;;;6.00;99.90;;;;;;4960331;28;20242;-79
2021/04/08 08:23:42;;;;;;;9.17;1.73;;;6.10;99.90;;;;;;4958465;28;20256;-78
2021/04/08 08:26:32;;;;;;;5.47;1.40;;;6.00;99.90;;;;;;4958551;28;20653;-79
2021/04/08 08:29:02;;;;;;;9.57;1.83;;;6.00;99.90;;;;;;4988759;28;20830;-79
2021/04/08 08:31:39;;;;;;;6.90;2.00;;;6.10;99.90;;;;;;4978181;28;20241;-79
2021/04/08 08:34:16;;;;;;;4.13;1.87;;;6.30;99.90;;;;;;4978730;28;20745;-79
2021/04/08 08:36:47;;;;;;;7.30;2.00;;;6.20;99.90;;;;;;4976855;28;20236;-78
2021/04/08 08:39:19;;;;;;;5.03;1.30;;;6.30;99.90;;;;;;4970196;28;20230;-81
2021/04/08 08:41:48;;;;;;;7.23;1.53;;;6.40;99.90;;;;;;4988278;28;20832;-79
2021/04/08 08:44:20;;;;;;;5.67;1.57;;;6.40;99.90;;;;;;4962687;28;20493;-78
2021/04/08 08:46:52;;;;;;;4.17;1.23;;;6.40;99.90;;;;;;4986525;28;20249;-80
2021/04/08 08:49:23;;;;;;;2.87;1.23;;;6.50;99.90;;;;;;4988817;28;20501;-79
2021/04/08 08:51:54;;;;;;;6.43;1.87;;;6.50;99.90;;;;;;4994391;28;21158;-80
2021/04/08 08:54:23;;;;;;;6.27;1.40;;;6.70;99.90;;;;;;4984997;28;20399;-80
2021/04/08 08:56:51;;;;;;;4.60;2.03;;;6.90;99.90;;;;;;4983339;28;20249;-79
2021/04/08 08:59:19;;;;;;;5.43;1.60;;;7.00;99.90;;;;;;4986004;28;20239;-79
2021/04/08 09:01:47;;;;;;;5.97;1.93;;;7.30;99.90;;;;;;4986965;28;20272;-79
2021/04/08 09:04:16;;;;;;;6.40;1.63;;;7.70;99.90;;;;;;4973738;28;20245;-80
2021/04/08 09:06:58;;;;;;;5.67;1.90;;;8.00;99.90;;;;;;4968801;28;21111;-79
2021/04/08 09:09:29;;;;;;;5.03;1.40;;;7.90;99.90;;;;;;4956943;28;20717;-79
2021/04/08 09:11:59;;;;;;;4.37;1.40;;;7.90;99.90;;;;;;4959119;28;20233;-80
2021/04/08 09:14:28;;;;;;;7.20;1.90;;;7.70;99.90;;;;;;4963723;28;20301;-80
2021/04/08 09:16:59;;;;;;;5.13;1.27;;;7.60;99.90;;;;;;4960285;28;20693;-80
2021/04/08 09:19:29;;;;;;;7.93;1.57;;;7.40;99.90;;;;;;4962280;28;20588;-79
2021/04/08 09:22:00;;;;;;;5.80;1.13;;;7.30;99.90;;;;;;4965801;28;20336;-79
2021/04/08 09:24:38;;;;;;;5.37;1.17;;;7.20;99.90;;;;;;4985415;28;20641;-80
2021/04/08 09:27:08;;;;;;;5.03;1.30;;;7.20;99.90;;;;;;4965065;28;20246;-80
2021/04/08 09:29:53;;;;;;;5.07;1.40;;;7.10;99.90;;;;;;4980131;28;20581;-78
2021/04/08 09:32:30;;;;;;;4.53;1.40;;;7.10;99.90;;;;;;4982596;28;20245;-80
2021/04/08 09:35:20;;;;;;;6.60;1.30;;;7.00;99.90;;;;;;4983182;28;20269;-80
2021/04/08 09:38:22;;;;;;;5.30;1.33;;;6.80;99.90;;;;;;4982567;28;20248;-80
2021/04/08 09:40:57;;;;;;;4.40;1.33;;;6.50;99.90;;;;;;4986286;28;20767;-79
2021/04/08 09:43:29;;;;;;;3.60;1.43;;;6.60;99.90;;;;;;4986971;28;20249;-79
2021/04/08 09:46:10;;;;;;;3.70;1.20;;;6.60;99.90;;;;;;4991119;28;21304;-80
2021/04/08 09:48:53;;;;;;;4.73;1.40;;;6.40;99.90;;;;;;4988833;28;20243;-80
2021/04/08 09:51:44;;;;;;;5.80;1.23;;;6.20;99.90;;;;;;4982394;28;20255;-79
2021/04/08 09:54:14;;;;;;;5.00;1.20;;;6.00;99.90;;;;;;4984039;28;20503;-80
2021/04/08 09:56:53;;;;;;;4.63;1.27;;;5.90;99.90;;;;;;4976756;28;20241;-80
2021/04/08 09:59:22;;;;;;;7.67;1.90;;;5.80;99.90;;;;;;4987621;28;20242;-80
2021/04/08 10:01:51;;;;;;;4.07;1.30;;;5.70;99.90;;;;;;4980916;28;20660;-79
2021/04/08 10:04:24;;;;;;;3.37;1.17;;;5.80;99.90;;;;;;4993212;28;20244;-79
2021/04/08 10:07:04;;;;;;;6.00;1.20;;;5.80;99.90;;;;;;4987671;28;20675;-79
2021/04/08 10:09:32;;;;;;;5.53;1.20;;;5.70;99.90;;;;;;4983359;28;20296;-79
2021/04/08 10:12:01;;;;;;;5.40;1.50;;;5.70;99.90;;;;;;4984733;28;20641;-79
2021/04/08 10:14:31;;;;;;;6.57;1.27;;;5.70;99.90;;;;;;4985269;28;21035;-78
2021/04/08 10:17:06;;;;;;;3.27;1.37;;;5.60;99.90;;;;;;4992424;28;20315;-79
2021/04/08 10:19:37;;;;;;;3.67;1.00;;;5.60;99.90;;;;;;5000005;28;20247;-78
2021/04/08 10:22:06;;;;;;;5.90;1.37;;;5.60;99.90;;;;;;4990604;28;20240;-80
2021/04/08 10:24:39;;;;;;;5.70;1.30;;;5.40;99.90;;;;;;4998229;28;20473;-79
2021/04/08 10:27:17;;;;;;;7.67;1.83;;;5.40;99.90;;;;;;5014306;28;21066;-79
2021/04/08 10:29:47;;;;;;;4.97;1.20;;;5.20;99.90;;;;;;5022041;28;20718;-78
2021/04/08 10:32:30;;;;;;;4.10;1.20;;;5.10;99.90;;;;;;5025189;28;20585;-81
2021/04/08 10:34:59;;;;;;;4.40;1.10;;;5.20;99.90;;;;;;5021167;28;20493;-82
2021/04/08 10:37:28;;;;;;;4.00;1.03;;;5.40;99.90;;;;;;5013571;28;20238;-80
2021/04/08 10:39:56;;;;;;;6.53;1.17;;;5.60;99.90;;;;;;5021696;28;20478;-81
2021/04/08 10:42:25;;;;;;;2.43;0.90;;;5.80;99.90;;;;;;5025474;28;20644;-80
2021/04/08 10:44:55;;;;;;;5.70;0.90;;;5.70;99.90;;;;;;5013779;28;20734;-80
2021/04/08 10:47:26;;;;;;;4.00;0.90;;;5.50;99.90;;;;;;5025600;28;20333;-79
2021/04/08 10:49:56;;;;;;;3.13;1.00;;;5.50;99.90;;;;;;5009039;28;20922;-79
2021/04/08 10:52:27;;;;;;;2.33;0.90;;;5.40;99.90;;;;;;5024797;28;20739;-79
2021/04/08 10:54:56;;;;;;;3.43;0.93;;;5.30;99.90;;;;;;5013301;28;20241;-79
2021/04/08 10:57:26;;;;;;;4.10;1.43;;;5.20;99.90;;;;;;5010065;28;20305;-80
2021/04/08 10:59:55;;;;;;;6.83;1.50;;;5.10;99.90;;;;;;5012618;28;20287;-79
2021/04/08 11:02:25;;;;;;;6.67;1.60;;;5.00;99.90;;;;;;5010234;28;20601;-79
2021/04/08 11:04:56;;;;;;;5.87;1.63;;;5.00;99.90;;;;;;5012816;28;20491;-79
2021/04/08 11:07:25;;;;;;;6.30;1.60;;;5.00;99.90;;;;;;5011865;28;20259;-79
2021/04/08 11:10:07;;;;;;;5.53;1.50;;;5.10;99.90;;;;;;5012734;28;20994;-80
2021/04/08 11:12:36;;;;;;;4.13;1.40;;;5.30;99.90;;;;;;5012083;28;20241;-80
2021/04/08 11:15:07;;;;;;;3.33;1.53;;;5.50;99.90;;;;;;5000322;28;20317;-80
2021/04/08 11:17:39;;;;;;;3.00;1.47;;;5.60;99.90;;;;;;5011792;28;20480;-79
2021/04/08 11:20:08;;;;;;;2.83;1.30;;;5.70;99.90;;;;;;5011019;28;20244;-79
2021/04/08 11:22:44;;;;;;;2.90;1.77;;;5.90;99.90;;;;;;5003880;28;20244;-79
2021/04/08 11:25:13;;;;;;;6.23;1.80;;;6.00;99.90;;;;;;5016756;28;20274;-79
2021/04/08 11:27:44;;;;;;;4.27;1.63;;;6.30;99.90;;;;;;5020958;28;20375;-81
2021/04/08 11:30:19;;;;;;;5.40;2.10;;;6.40;99.90;;;;;;5016723;28;20244;-79
2021/04/08 11:32:49;;;;;;;5.47;1.70;;;6.40;99.90;;;;;;5010213;28;20384;-81
2021/04/08 11:35:29;;;;;;;5.67;1.37;;;6.50;99.90;;;;;;5014926;28;20763;-81
2021/04/08 11:38:06;;;;;;;5.30;1.97;;;6.60;99.90;;;;;;5021355;28;20235;-81
2021/04/08 11:40:34;;;;;;;8.47;1.90;;;6.60;99.90;;;;;;5021548;28;20733;-81
2021/04/08 11:43:35;;;;;;;9.63;1.63;;;6.60;99.90;;;;;;5018289;28;20291;-81
2021/04/08 11:46:05;;;;;;;5.53;1.23;;;6.70;99.90;;;;;;5025753;28;20747;-81
2021/04/08 11:48:41;;;;;;;16.03;1.80;;;6.70;99.90;;;;;;5038102;28;20773;-82
2021/04/08 11:51:10;;;;;;;4.50;1.20;;;6.50;99.90;;;;;;5026812;28;20239;-81
2021/04/08 11:53:39;;;;;;;4.53;1.23;;;6.20;99.90;;;;;;5019381;28;20241;-81
2021/04/08 11:56:25;;;;;;;2.77;1.40;;;6.10;99.90;;;;;;5039511;28;20537;-81
2021/04/08 11:59:05;;;;;;;5.67;1.20;;;6.10;99.90;;;;;;5021762;28;20243;-79
2021/04/08 12:01:40;;;;;;;2.33;1.20;;;6.20;99.90;;;;;;5022866;28;20260;-81
2021/04/08 12:04:14;;;;;;;2.60;1.07;;;6.30;99.90;;;;;;5017983;28;20368;-79
2021/04/08 12:06:45;;;;;;;5.80;1.20;;;6.30;99.90;;;;;;5021446;28;20228;-81
2021/04/08 12:09:33;;;;;;;4.87;1.20;;;6.30;99.90;;;;;;4842095;28;10000778;-81
2021/04/08 12:12:01;;;;;;;3.63;1.20;;;6.50;99.90;;;;;;3118025;28;10002009;-80
2021/04/08 12:14:29;;;;;;;3.10;1.10;;;6.70;99.90;;;;;;5041833;28;20479;-80
2021/04/08 12:17:04;;;;;;;4.40;1.27;;;6.80;99.90;;;;;;5010701;28;20484;-80
2021/04/08 12:19:33;;;;;;;2.73;1.43;;;6.90;99.90;;;;;;5016881;28;20785;-80
2021/04/08 12:22:04;;;;;;;3.50;1.60;;;7.00;99.90;;;;;;5018946;28;20233;-81
2021/04/08 12:24:32;;;;;;;6.73;1.67;;;7.10;99.90;;;;;;5015738;28;20244;-80
2021/04/08 12:26:59;;;;;;;5.60;1.50;;;7.10;99.90;;;;;;5017375;28;20236;-80
2021/04/08 12:29:28;;;;;;;5.50;1.73;;;7.10;99.90;;;;;;5010927;28;20240;-80
2021/04/08 12:31:56;;;;;;;3.93;1.27;;;7.10;99.90;;;;;;5027489;28;20236;-80
2021/04/08 12:34:23;;;;;;;6.43;1.50;;;7.00;99.90;;;;;;5026577;28;20275;-79
2021/04/08 12:36:51;;;;;;;6.80;1.50;;;7.00;99.90;;;;;;5018997;28;20232;-80
2021/04/08 12:39:18;;;;;;;5.67;1.50;;;7.00;99.90;;;;;;5010298;28;20232;-80
2021/04/08 12:41:46;;;;;;;6.47;1.50;;;7.00;99.90;;;;;;5008583;28;20248;-79
2021/04/08 12:44:13;;;;;;;4.07;1.50;;;7.00;99.90;;;;;;5015503;28;20229;-80
2021/04/08 12:46:42;;;;;;;5.13;1.83;;;7.10;99.90;;;;;;5005151;28;20251;-80
2021/04/08 12:49:09;;;;;;;7.37;1.70;;;7.20;99.90;;;;;;5010153;28;20244;-81
2021/04/08 12:51:37;;;;;;;3.77;1.60;;;7.30;99.90;;;;;;5012566;28;20692;-80
2021/04/08 12:54:05;;;;;;;5.33;1.63;;;7.50;99.90;;;;;;5009864;28;20233;-80
2021/04/08 12:56:32;;;;;;;10.27;1.43;;;7.60;99.90;;;;;;5011022;28;20255;-80
2021/04/08 12:59:01;;;;;;;6.63;2.13;;;7.70;99.90;;;;;;5011485;28;20245;-81
2021/04/08 13:01:29;;;;;;;3.67;1.33;;;7.70;99.90;;;;;;5011944;28;20279;-81
2021/04/08 13:03:57;;;;;;;8.00;1.50;;;7.70;99.90;;;;;;5003215;28;20436;-80
2021/04/08 13:06:24;;;;;;;8.40;1.50;;;7.80;99.90;;;;;;5007664;28;20734;-80
2021/04/08 13:08:52;;;;;;;5.90;1.50;;;7.90;99.90;;;;;;5001112;28;20236;-80
2021/04/08 13:11:19;;;;;;;4.80;1.43;;;7.90;99.90;;;;;;5002014;28;20245;-80
2021/04/08 13:14:03;;;;;;;3.63;1.43;;;8.00;99.90;;;;;;5002029;28;20240;-80